sensor_id;sensor_type;location;lat;lon;timestamp;temperature;humidity
46900;DHT22;32647;49.382;7.078;2023-08-30T00:00:20;12.40;99.90
46900;DHT22;32647;49.382;7.078;2023-08-30T00:03:07;12.40;99.90
46900;DHT22;32647;49.382;7.078;2023-08-30T00:05:53;12.40;99.90
46900;DHT22;32647;49.382;7.078;2023-08-30T00:08:40;12.40;99.90
46900;DHT22;32647;49.382;7.078;2023-08-30T00:11:27;12.30;99.90
46900;DHT22;32647;49.382;7.078;2023-08-30T00:14:15;12.30;99.90
46900;DHT22;32647;49.382;7.078;2023-08-30T00:17:01;12.20;99.90
46900;DHT22;32647;49.382;7.078;2023-08-30T00:19:47;12.20;99.90
46900;DHT22;32647;49.382;7.078;2023-08-30T00:22:34;12.20;99.90
46900;DHT22;32647;49.382;7.078;2023-08-30T00:25:20;12.10;99.90
46900;DHT22;32647;49.382;7.078;2023-08-30T00:28:06;12.10;99.90
46900;DHT22;32647;49.382;7.078;2023-08-30T00:30:55;12.10;99.90
46900;DHT22;32647;49.382;7.078;2023-08-30T00:33:41;12.00;99.90
46900;DHT22;32647;49.382;7.078;2023-08-30T00:36:27;12.00;99.90
46900;DHT22;32647;49.382;7.078;2023-08-30T00:39:13;11.90;99.90
46900;DHT22;32647;49.382;7.078;2023-08-30T00:41:59;11.90;99.90
46900;DHT22;32647;49.382;7.078;2023-08-30T00:44:50;11.90;99.90
46900;DHT22;32647;49.382;7.078;2023-08-30T00:47:36;11.80;99.90
46900;DHT22;32647;49.382;7.078;2023-08-30T00:50:22;11.80;99.90
46900;DHT22;32647;49.382;7.078;2023-08-30T00:53:10;11.80;99.90
46900;DHT22;32647;49.382;7.078;2023-08-30T00:55:56;11.80;99.90
46900;DHT22;32647;49.382;7.078;2023-08-30T00:58:42;11.80;99.90
46900;DHT22;32647;49.382;7.078;2023-08-30T01:01:28;11.70;99.90
46900;DHT22;32647;49.382;7.078;2023-08-30T01:04:14;11.70;99.90
46900;DHT22;32647;49.382;7.078;2023-08-30T01:07:00;11.60;99.90
46900;DHT22;32647;49.382;7.078;2023-08-30T01:09:46;11.60;99.90
46900;DHT22;32647;49.382;7.078;2023-08-30T01:13:06;11.70;99.90
46900;DHT22;32647;49.382;7.078;2023-08-30T01:15:54;11.80;99.90
46900;DHT22;32647;49.382;7.078;2023-08-30T01:18:41;11.90;99.90
46900;DHT22;32647;49.382;7.078;2023-08-30T01:21:36;11.90;99.90
46900;DHT22;32647;49.382;7.078;2023-08-30T01:25:09;11.90;99.90
46900;DHT22;32647;49.382;7.078;2023-08-30T01:27:42;12.00;99.90
46900;DHT22;32647;49.382;7.078;2023-08-30T01:30:32;12.00;99.90
46900;DHT22;32647;49.382;7.078;2023-08-30T01:33:18;12.10;99.90
46900;DHT22;32647;49.382;7.078;2023-08-30T01:36:05;12.10;99.90
46900;DHT22;32647;49.382;7.078;2023-08-30T01:38:52;12.20;99.90
46900;DHT22;32647;49.382;7.078;2023-08-30T01:41:39;12.20;99.90
46900;DHT22;32647;49.382;7.078;2023-08-30T01:44:28;12.20;99.90
46900;DHT22;32647;49.382;7.078;2023-08-30T01:47:14;12.20;99.90
46900;DHT22;32647;49.382;7.078;2023-08-30T01:50:02;12.10;99.90
46900;DHT22;32647;49.382;7.078;2023-08-30T01:52:50;12.10;99.90
46900;DHT22;32647;49.382;7.078;2023-08-30T01:55:36;12.20;99.90
46900;DHT22;32647;49.382;7.078;2023-08-30T01:58:23;12.20;99.90
46900;DHT22;32647;49.382;7.078;2023-08-30T02:01:09;12.20;99.90
46900;DHT22;32647;49.382;7.078;2023-08-30T02:03:55;12.40;99.90
46900;DHT22;32647;49.382;7.078;2023-08-30T02:06:54;12.30;99.90
46900;DHT22;32647;49.382;7.078;2023-08-30T02:10:00;12.30;99.90
46900;DHT22;32647;49.382;7.078;2023-08-30T02:12:49;12.30;99.90
46900;DHT22;32647;49.382;7.078;2023-08-30T02:15:40;12.40;99.90
46900;DHT22;32647;49.382;7.078;2023-08-30T02:18:27;12.50;99.90
46900;DHT22;32647;49.382;7.078;2023-08-30T02:21:14;12.40;99.90
46900;DHT22;32647;49.382;7.078;2023-08-30T02:24:00;12.40;99.90
46900;DHT22;32647;49.382;7.078;2023-08-30T02:26:46;12.30;99.90
46900;DHT22;32647;49.382;7.078;2023-08-30T02:29:32;12.20;99.90
46900;DHT22;32647;49.382;7.078;2023-08-30T02:32:17;12.20;99.90
46900;DHT22;32647;49.382;7.078;2023-08-30T02:35:06;12.20;99.90
46900;DHT22;32647;49.382;7.078;2023-08-30T02:37:52;12.20;99.90
46900;DHT22;32647;49.382;7.078;2023-08-30T02:40:38;12.30;99.90
46900;DHT22;32647;49.382;7.078;2023-08-30T02:43:24;12.40;99.90
46900;DHT22;32647;49.382;7.078;2023-08-30T02:46:10;12.50;99.90
46900;DHT22;32647;49.382;7.078;2023-08-30T02:48:56;12.40;99.90
46900;DHT22;32647;49.382;7.078;2023-08-30T02:51:42;12.30;99.90
46900;DHT22;32647;49.382;7.078;2023-08-30T02:54:28;12.30;99.90
46900;DHT22;32647;49.382;7.078;2023-08-30T02:57:14;12.30;99.90
46900;DHT22;32647;49.382;7.078;2023-08-30T03:00:00;12.20;99.90
46900;DHT22;32647;49.382;7.078;2023-08-30T03:02:46;12.30;99.90
46900;DHT22;32647;49.382;7.078;2023-08-30T03:05:32;12.30;99.90
46900;DHT22;32647;49.382;7.078;2023-08-30T03:08:18;12.30;99.90
46900;DHT22;32647;49.382;7.078;2023-08-30T03:11:11;12.30;99.90
46900;DHT22;32647;49.382;7.078;2023-08-30T03:13:57;12.20;99.90
46900;DHT22;32647;49.382;7.078;2023-08-30T03:16:43;12.20;99.90
46900;DHT22;32647;49.382;7.078;2023-08-30T03:19:30;12.20;99.90
46900;DHT22;32647;49.382;7.078;2023-08-30T03:22:16;12.30;99.90
46900;DHT22;32647;49.382;7.078;2023-08-30T03:25:02;12.40;99.90
46900;DHT22;32647;49.382;7.078;2023-08-30T03:27:49;12.40;99.90
46900;DHT22;32647;49.382;7.078;2023-08-30T03:30:35;12.40;99.90
46900;DHT22;32647;49.382;7.078;2023-08-30T03:33:21;12.40;99.90
46900;DHT22;32647;49.382;7.078;2023-08-30T03:36:08;12.50;99.90
46900;DHT22;32647;49.382;7.078;2023-08-30T03:38:55;12.40;99.90
46900;DHT22;32647;49.382;7.078;2023-08-30T03:41:40;12.50;99.90
46900;DHT22;32647;49.382;7.078;2023-08-30T03:44:27;12.60;99.90
46900;DHT22;32647;49.382;7.078;2023-08-30T03:47:12;12.60;99.90
46900;DHT22;32647;49.382;7.078;2023-08-30T03:49:58;12.60;99.90
46900;DHT22;32647;49.382;7.078;2023-08-30T03:52:44;12.60;99.90
46900;DHT22;32647;49.382;7.078;2023-08-30T03:55:31;12.60;99.90
46900;DHT22;32647;49.382;7.078;2023-08-30T03:58:20;12.60;99.90
46900;DHT22;32647;49.382;7.078;2023-08-30T04:01:06;12.60;99.90
46900;DHT22;32647;49.382;7.078;2023-08-30T04:03:52;12.70;99.90
46900;DHT22;32647;49.382;7.078;2023-08-30T04:06:38;12.70;99.90
46900;DHT22;32647;49.382;7.078;2023-08-30T04:09:24;12.60;99.90
46900;DHT22;32647;49.382;7.078;2023-08-30T04:12:10;12.60;99.90
46900;DHT22;32647;49.382;7.078;2023-08-30T04:14:56;12.60;99.90
46900;DHT22;32647;49.382;7.078;2023-08-30T04:17:42;12.60;99.90
46900;DHT22;32647;49.382;7.078;2023-08-30T04:20:28;12.60;99.90
46900;DHT22;32647;49.382;7.078;2023-08-30T04:23:14;12.50;99.90
46900;DHT22;32647;49.382;7.078;2023-08-30T04:26:00;12.50;99.90
46900;DHT22;32647;49.382;7.078;2023-08-30T04:28:46;12.50;99.90
46900;DHT22;32647;49.382;7.078;2023-08-30T04:31:32;12.50;99.90
46900;DHT22;32647;49.382;7.078;2023-08-30T04:34:18;12.60;99.90
46900;DHT22;32647;49.382;7.078;2023-08-30T04:37:04;12.50;99.90
46900;DHT22;32647;49.382;7.078;2023-08-30T04:39:50;12.60;99.90
46900;DHT22;32647;49.382;7.078;2023-08-30T04:42:36;12.60;99.90
46900;DHT22;32647;49.382;7.078;2023-08-30T04:45:23;12.60;99.90
46900;DHT22;32647;49.382;7.078;2023-08-30T04:48:09;12.60;99.90
46900;DHT22;32647;49.382;7.078;2023-08-30T04:51:02;12.60;99.90
46900;DHT22;32647;49.382;7.078;2023-08-30T04:53:51;12.60;99.90
46900;DHT22;32647;49.382;7.078;2023-08-30T04:56:37;12.60;99.90
46900;DHT22;32647;49.382;7.078;2023-08-30T04:59:23;12.60;99.90
46900;DHT22;32647;49.382;7.078;2023-08-30T05:02:10;12.70;99.90
46900;DHT22;32647;49.382;7.078;2023-08-30T05:04:56;12.70;99.90
46900;DHT22;32647;49.382;7.078;2023-08-30T05:07:42;12.70;99.90
46900;DHT22;32647;49.382;7.078;2023-08-30T05:10:28;12.60;99.90
46900;DHT22;32647;49.382;7.078;2023-08-30T05:13:16;12.60;99.90
46900;DHT22;32647;49.382;7.078;2023-08-30T05:16:02;12.50;99.90
46900;DHT22;32647;49.382;7.078;2023-08-30T05:18:48;12.40;99.90
46900;DHT22;32647;49.382;7.078;2023-08-30T05:21:35;12.50;99.90
46900;DHT22;32647;49.382;7.078;2023-08-30T05:24:25;12.60;99.90
46900;DHT22;32647;49.382;7.078;2023-08-30T05:27:12;12.60;99.90
46900;DHT22;32647;49.382;7.078;2023-08-30T05:30:00;12.60;99.90
46900;DHT22;32647;49.382;7.078;2023-08-30T05:32:46;12.60;99.90
46900;DHT22;32647;49.382;7.078;2023-08-30T05:35:32;12.70;99.90
46900;DHT22;32647;49.382;7.078;2023-08-30T05:38:18;12.60;99.90
46900;DHT22;32647;49.382;7.078;2023-08-30T05:41:04;12.70;99.90
46900;DHT22;32647;49.382;7.078;2023-08-30T05:43:51;12.80;99.90
46900;DHT22;32647;49.382;7.078;2023-08-30T05:46:37;12.70;99.90
46900;DHT22;32647;49.382;7.078;2023-08-30T05:49:23;12.70;99.90
46900;DHT22;32647;49.382;7.078;2023-08-30T05:52:09;12.60;99.90
46900;DHT22;32647;49.382;7.078;2023-08-30T05:54:55;12.40;99.90
46900;DHT22;32647;49.382;7.078;2023-08-30T05:57:41;12.70;99.90
46900;DHT22;32647;49.382;7.078;2023-08-30T06:00:27;12.80;99.90
46900;DHT22;32647;49.382;7.078;2023-08-30T06:03:13;12.90;99.90
46900;DHT22;32647;49.382;7.078;2023-08-30T06:05:59;12.90;99.90
46900;DHT22;32647;49.382;7.078;2023-08-30T06:08:45;12.90;99.90
46900;DHT22;32647;49.382;7.078;2023-08-30T06:11:32;13.00;99.90
46900;DHT22;32647;49.382;7.078;2023-08-30T06:14:18;13.00;99.90
46900;DHT22;32647;49.382;7.078;2023-08-30T06:17:04;13.00;99.90
46900;DHT22;32647;49.382;7.078;2023-08-30T06:19:50;13.00;99.90
46900;DHT22;32647;49.382;7.078;2023-08-30T06:22:36;13.10;99.90
46900;DHT22;32647;49.382;7.078;2023-08-30T06:25:22;13.10;99.90
46900;DHT22;32647;49.382;7.078;2023-08-30T06:28:09;13.10;99.90
46900;DHT22;32647;49.382;7.078;2023-08-30T06:30:55;13.10;99.90
46900;DHT22;32647;49.382;7.078;2023-08-30T06:33:41;13.20;99.90
46900;DHT22;32647;49.382;7.078;2023-08-30T06:36:27;13.30;99.90
46900;DHT22;32647;49.382;7.078;2023-08-30T06:39:13;13.30;99.90
46900;DHT22;32647;49.382;7.078;2023-08-30T06:41:59;13.40;99.90
46900;DHT22;32647;49.382;7.078;2023-08-30T06:44:45;13.30;99.90
46900;DHT22;32647;49.382;7.078;2023-08-30T06:47:30;13.40;99.90
46900;DHT22;32647;49.382;7.078;2023-08-30T06:50:16;13.30;99.90
46900;DHT22;32647;49.382;7.078;2023-08-30T06:53:03;13.40;99.90
46900;DHT22;32647;49.382;7.078;2023-08-30T06:56:09;13.50;99.90
46900;DHT22;32647;49.382;7.078;2023-08-30T06:58:55;13.50;99.90
46900;DHT22;32647;49.382;7.078;2023-08-30T07:01:41;13.50;99.90
46900;DHT22;32647;49.382;7.078;2023-08-30T07:04:27;13.60;99.90
46900;DHT22;32647;49.382;7.078;2023-08-30T07:07:13;13.60;99.90
46900;DHT22;32647;49.382;7.078;2023-08-30T07:09:59;13.60;99.90
46900;DHT22;32647;49.382;7.078;2023-08-30T07:12:45;13.60;99.90
46900;DHT22;32647;49.382;7.078;2023-08-30T07:15:34;13.70;99.90
46900;DHT22;32647;49.382;7.078;2023-08-30T07:18:20;13.70;99.90
46900;DHT22;32647;49.382;7.078;2023-08-30T07:21:06;13.70;99.90
46900;DHT22;32647;49.382;7.078;2023-08-30T07:23:52;13.70;99.90
46900;DHT22;32647;49.382;7.078;2023-08-30T07:26:38;13.60;99.90
46900;DHT22;32647;49.382;7.078;2023-08-30T07:29:24;13.60;99.90
46900;DHT22;32647;49.382;7.078;2023-08-30T07:32:10;13.70;99.90
46900;DHT22;32647;49.382;7.078;2023-08-30T07:34:56;13.80;99.90
46900;DHT22;32647;49.382;7.078;2023-08-30T07:37:41;14.00;99.90
46900;DHT22;32647;49.382;7.078;2023-08-30T07:40:27;14.20;99.90
46900;DHT22;32647;49.382;7.078;2023-08-30T07:43:16;14.30;99.90
46900;DHT22;32647;49.382;7.078;2023-08-30T07:46:02;14.50;99.90
46900;DHT22;32647;49.382;7.078;2023-08-30T07:48:48;14.70;99.90
46900;DHT22;32647;49.382;7.078;2023-08-30T07:51:34;14.80;99.90
46900;DHT22;32647;49.382;7.078;2023-08-30T07:54:20;14.80;99.90
46900;DHT22;32647;49.382;7.078;2023-08-30T07:57:07;14.80;99.90
46900;DHT22;32647;49.382;7.078;2023-08-30T07:59:53;14.90;99.90
46900;DHT22;32647;49.382;7.078;2023-08-30T08:02:40;15.00;99.90
46900;DHT22;32647;49.382;7.078;2023-08-30T08:05:26;15.00;99.90
46900;DHT22;32647;49.382;7.078;2023-08-30T08:08:12;15.00;99.90
46900;DHT22;32647;49.382;7.078;2023-08-30T08:11:01;15.00;99.90
46900;DHT22;32647;49.382;7.078;2023-08-30T08:13:47;15.00;99.90
46900;DHT22;32647;49.382;7.078;2023-08-30T08:16:33;15.20;99.90
46900;DHT22;32647;49.382;7.078;2023-08-30T08:19:19;15.30;99.90
46900;DHT22;32647;49.382;7.078;2023-08-30T08:22:07;15.40;99.90
46900;DHT22;32647;49.382;7.078;2023-08-30T08:24:54;15.50;99.90
46900;DHT22;32647;49.382;7.078;2023-08-30T08:27:42;15.70;99.90
46900;DHT22;32647;49.382;7.078;2023-08-30T08:30:28;15.90;99.90
46900;DHT22;32647;49.382;7.078;2023-08-30T08:33:14;15.90;99.90
46900;DHT22;32647;49.382;7.078;2023-08-30T08:36:00;15.90;99.90
46900;DHT22;32647;49.382;7.078;2023-08-30T08:38:46;16.10;99.90
46900;DHT22;32647;49.382;7.078;2023-08-30T08:41:51;16.00;99.90
46900;DHT22;32647;49.382;7.078;2023-08-30T08:44:39;16.00;99.90
46900;DHT22;32647;49.382;7.078;2023-08-30T08:47:26;15.90;99.90
46900;DHT22;32647;49.382;7.078;2023-08-30T08:50:13;15.90;99.90
46900;DHT22;32647;49.382;7.078;2023-08-30T08:53:00;16.00;99.90
46900;DHT22;32647;49.382;7.078;2023-08-30T08:55:48;16.20;99.90
46900;DHT22;32647;49.382;7.078;2023-08-30T08:58:36;16.40;99.90
46900;DHT22;32647;49.382;7.078;2023-08-30T09:01:24;16.70;99.90
46900;DHT22;32647;49.382;7.078;2023-08-30T09:04:11;16.80;99.90
46900;DHT22;32647;49.382;7.078;2023-08-30T09:06:58;16.80;99.90
46900;DHT22;32647;49.382;7.078;2023-08-30T09:09:45;16.70;99.90
46900;DHT22;32647;49.382;7.078;2023-08-30T09:12:35;16.40;99.90
46900;DHT22;32647;49.382;7.078;2023-08-30T09:15:21;16.70;99.90
46900;DHT22;32647;49.382;7.078;2023-08-30T09:18:17;17.00;99.90
46900;DHT22;32647;49.382;7.078;2023-08-30T09:21:10;17.40;99.90
46900;DHT22;32647;49.382;7.078;2023-08-30T09:24:06;18.10;99.90
46900;DHT22;32647;49.382;7.078;2023-08-30T09:26:53;18.30;99.90
46900;DHT22;32647;49.382;7.078;2023-08-30T09:29:39;18.60;99.90
46900;DHT22;32647;49.382;7.078;2023-08-30T09:32:29;18.80;99.90
46900;DHT22;32647;49.382;7.078;2023-08-30T09:35:15;18.50;99.90
46900;DHT22;32647;49.382;7.078;2023-08-30T09:38:01;17.70;99.90
46900;DHT22;32647;49.382;7.078;2023-08-30T09:40:47;17.40;99.90
46900;DHT22;32647;49.382;7.078;2023-08-30T09:43:33;17.70;99.90
46900;DHT22;32647;49.382;7.078;2023-08-30T09:46:20;17.90;99.90
46900;DHT22;32647;49.382;7.078;2023-08-30T09:49:06;18.10;99.90
46900;DHT22;32647;49.382;7.078;2023-08-30T09:51:54;18.40;99.90
46900;DHT22;32647;49.382;7.078;2023-08-30T09:54:41;18.70;99.90
46900;DHT22;32647;49.382;7.078;2023-08-30T09:57:29;18.90;99.90
46900;DHT22;32647;49.382;7.078;2023-08-30T10:15:26;18.70;99.90
46900;DHT22;32647;49.382;7.078;2023-08-30T10:18:15;18.70;99.90
46900;DHT22;32647;49.382;7.078;2023-08-30T10:21:03;19.00;99.90
46900;DHT22;32647;49.382;7.078;2023-08-30T10:23:52;19.30;99.90
46900;DHT22;32647;49.382;7.078;2023-08-30T10:26:43;19.90;99.90
46900;DHT22;32647;49.382;7.078;2023-08-30T10:29:34;19.80;99.90
46900;DHT22;32647;49.382;7.078;2023-08-30T10:32:21;19.30;99.30
46900;DHT22;32647;49.382;7.078;2023-08-30T10:35:12;19.90;94.10
46900;DHT22;32647;49.382;7.078;2023-08-30T10:38:00;19.80;91.50
46900;DHT22;32647;49.382;7.078;2023-08-30T10:40:49;19.60;98.60
46900;DHT22;32647;49.382;7.078;2023-08-30T10:43:36;19.30;99.90
46900;DHT22;32647;49.382;7.078;2023-08-30T10:46:34;19.20;99.90
46900;DHT22;32647;49.382;7.078;2023-08-30T10:49:22;18.70;99.90
46900;DHT22;32647;49.382;7.078;2023-08-30T10:52:12;18.60;99.90
46900;DHT22;32647;49.382;7.078;2023-08-30T10:55:09;19.30;99.90
46900;DHT22;32647;49.382;7.078;2023-08-30T10:58:00;20.00;99.90
46900;DHT22;32647;49.382;7.078;2023-08-30T11:00:49;20.20;54.50
46900;DHT22;32647;49.382;7.078;2023-08-30T11:03:41;20.20;38.10
46900;DHT22;32647;49.382;7.078;2023-08-30T11:06:27;20.10;1.00
46900;DHT22;32647;49.382;7.078;2023-08-30T11:09:14;19.80;49.80
46900;DHT22;32647;49.382;7.078;2023-08-30T11:12:10;20.10;13.80
46900;DHT22;32647;49.382;7.078;2023-08-30T11:14:56;19.70;62.40
46900;DHT22;32647;49.382;7.078;2023-08-30T11:17:43;19.60;1.00
46900;DHT22;32647;49.382;7.078;2023-08-30T11:20:29;19.50;19.70
46900;DHT22;32647;49.382;7.078;2023-08-30T11:23:15;19.80;8.90
46900;DHT22;32647;49.382;7.078;2023-08-30T11:26:01;20.70;9.20
46900;DHT22;32647;49.382;7.078;2023-08-30T11:28:49;21.00;1.00
46900;DHT22;32647;49.382;7.078;2023-08-30T11:31:38;20.80;1.00
46900;DHT22;32647;49.382;7.078;2023-08-30T11:34:24;21.10;1.00
46900;DHT22;32647;49.382;7.078;2023-08-30T11:37:12;20.80;27.90
46900;DHT22;32647;49.382;7.078;2023-08-30T11:40:00;21.40;99.90
46900;DHT22;32647;49.382;7.078;2023-08-30T11:42:48;22.10;91.30
46900;DHT22;32647;49.382;7.078;2023-08-30T11:45:36;21.80;99.90
46900;DHT22;32647;49.382;7.078;2023-08-30T11:48:22;22.20;99.90
46900;DHT22;32647;49.382;7.078;2023-08-30T11:51:08;21.90;99.90
46900;DHT22;32647;49.382;7.078;2023-08-30T11:53:55;21.00;99.90
46900;DHT22;32647;49.382;7.078;2023-08-30T11:56:41;20.30;1.00
46900;DHT22;32647;49.382;7.078;2023-08-30T11:59:27;20.00;99.90
46900;DHT22;32647;49.382;7.078;2023-08-30T12:02:17;19.60;1.00
46900;DHT22;32647;49.382;7.078;2023-08-30T12:05:04;19.70;1.00
46900;DHT22;32647;49.382;7.078;2023-08-30T12:07:50;19.60;1.00
46900;DHT22;32647;49.382;7.078;2023-08-30T12:10:36;19.60;99.90
46900;DHT22;32647;49.382;7.078;2023-08-30T12:13:25;19.60;99.90
46900;DHT22;32647;49.382;7.078;2023-08-30T12:16:16;19.30;1.00
46900;DHT22;32647;49.382;7.078;2023-08-30T12:19:12;19.40;1.00
46900;DHT22;32647;49.382;7.078;2023-08-30T12:22:07;20.00;99.90
46900;DHT22;32647;49.382;7.078;2023-08-30T12:24:56;20.00;1.00
46900;DHT22;32647;49.382;7.078;2023-08-30T12:27:49;20.00;99.90
46900;DHT22;32647;49.382;7.078;2023-08-30T12:30:35;20.30;92.90
46900;DHT22;32647;49.382;7.078;2023-08-30T12:33:22;21.10;99.90
46900;DHT22;32647;49.382;7.078;2023-08-30T12:36:08;21.10;27.40
46900;DHT22;32647;49.382;7.078;2023-08-30T12:38:55;21.60;99.90
46900;DHT22;32647;49.382;7.078;2023-08-30T12:41:40;21.30;99.90
46900;DHT22;32647;49.382;7.078;2023-08-30T12:44:28;21.60;99.90
46900;DHT22;32647;49.382;7.078;2023-08-30T12:47:15;21.40;99.90
46900;DHT22;32647;49.382;7.078;2023-08-30T12:50:01;22.10;99.90
46900;DHT22;32647;49.382;7.078;2023-08-30T12:52:47;21.90;99.90
46900;DHT22;32647;49.382;7.078;2023-08-30T12:55:34;21.30;1.00
46900;DHT22;32647;49.382;7.078;2023-08-30T12:58:20;21.60;99.90
46900;DHT22;32647;49.382;7.078;2023-08-30T13:01:19;21.30;99.90
46900;DHT22;32647;49.382;7.078;2023-08-30T13:04:05;20.70;1.00
46900;DHT22;32647;49.382;7.078;2023-08-30T13:06:51;20.00;99.90
46900;DHT22;32647;49.382;7.078;2023-08-30T13:09:37;19.80;99.90
46900;DHT22;32647;49.382;7.078;2023-08-30T13:12:23;19.60;1.00
46900;DHT22;32647;49.382;7.078;2023-08-30T13:15:10;19.50;99.90
46900;DHT22;32647;49.382;7.078;2023-08-30T13:17:56;19.40;99.90
46900;DHT22;32647;49.382;7.078;2023-08-30T13:20:42;19.40;99.90
46900;DHT22;32647;49.382;7.078;2023-08-30T13:23:28;19.30;37.90
46900;DHT22;32647;49.382;7.078;2023-08-30T13:26:14;19.00;99.90
46900;DHT22;32647;49.382;7.078;2023-08-30T13:29:00;18.90;99.90
46900;DHT22;32647;49.382;7.078;2023-08-30T13:31:48;18.60;99.90
46900;DHT22;32647;49.382;7.078;2023-08-30T13:34:37;18.60;1.00
46900;DHT22;32647;49.382;7.078;2023-08-30T13:37:23;18.70;40.10
46900;DHT22;32647;49.382;7.078;2023-08-30T13:40:09;19.30;99.90
46900;DHT22;32647;49.382;7.078;2023-08-30T13:42:56;20.30;99.90
46900;DHT22;32647;49.382;7.078;2023-08-30T13:45:42;20.40;99.90
46900;DHT22;32647;49.382;7.078;2023-08-30T13:48:29;20.70;99.90
46900;DHT22;32647;49.382;7.078;2023-08-30T13:51:23;21.00;99.90
46900;DHT22;32647;49.382;7.078;2023-08-30T13:54:09;20.60;99.90
46900;DHT22;32647;49.382;7.078;2023-08-30T13:56:59;20.10;1.00
46900;DHT22;32647;49.382;7.078;2023-08-30T13:59:45;19.70;99.90
46900;DHT22;32647;49.382;7.078;2023-08-30T14:02:31;19.30;99.90
46900;DHT22;32647;49.382;7.078;2023-08-30T14:05:18;19.20;95.30
46900;DHT22;32647;49.382;7.078;2023-08-30T14:08:04;19.10;24.30
46900;DHT22;32647;49.382;7.078;2023-08-30T14:10:54;18.70;99.90
46900;DHT22;32647;49.382;7.078;2023-08-30T14:13:42;18.90;99.90
46900;DHT22;32647;49.382;7.078;2023-08-30T14:16:31;18.90;1.00
46900;DHT22;32647;49.382;7.078;2023-08-30T14:19:26;18.60;10.10
46900;DHT22;32647;49.382;7.078;2023-08-30T14:22:11;18.50;40.70
46900;DHT22;32647;49.382;7.078;2023-08-30T14:24:58;18.10;99.10
46900;DHT22;32647;49.382;7.078;2023-08-30T14:27:44;17.90;99.60
46900;DHT22;32647;49.382;7.078;2023-08-30T14:30:30;17.90;99.90
46900;DHT22;32647;49.382;7.078;2023-08-30T14:33:19;17.60;99.90
46900;DHT22;32647;49.382;7.078;2023-08-30T14:36:12;17.50;99.90
46900;DHT22;32647;49.382;7.078;2023-08-30T14:38:58;17.50;99.90
46900;DHT22;32647;49.382;7.078;2023-08-30T14:41:47;17.50;99.90
46900;DHT22;32647;49.382;7.078;2023-08-30T14:44:33;17.50;99.90
46900;DHT22;32647;49.382;7.078;2023-08-30T14:47:19;17.40;99.90
46900;DHT22;32647;49.382;7.078;2023-08-30T14:50:07;17.30;99.90
46900;DHT22;32647;49.382;7.078;2023-08-30T14:52:53;17.30;99.90
46900;DHT22;32647;49.382;7.078;2023-08-30T14:55:40;17.40;99.90
46900;DHT22;32647;49.382;7.078;2023-08-30T14:58:29;17.10;99.90
46900;DHT22;32647;49.382;7.078;2023-08-30T15:01:15;17.20;99.90
46900;DHT22;32647;49.382;7.078;2023-08-30T15:04:02;17.40;99.90
46900;DHT22;32647;49.382;7.078;2023-08-30T15:06:48;17.80;99.90
46900;DHT22;32647;49.382;7.078;2023-08-30T15:10:03;17.90;99.90
46900;DHT22;32647;49.382;7.078;2023-08-30T15:12:49;18.70;99.90
46900;DHT22;32647;49.382;7.078;2023-08-30T15:15:35;19.20;99.90
46900;DHT22;32647;49.382;7.078;2023-08-30T15:18:21;19.20;99.90
46900;DHT22;32647;49.382;7.078;2023-08-30T15:21:07;19.00;99.90
46900;DHT22;32647;49.382;7.078;2023-08-30T15:23:53;19.30;99.90
46900;DHT22;32647;49.382;7.078;2023-08-30T15:26:39;19.20;99.70
46900;DHT22;32647;49.382;7.078;2023-08-30T15:29:27;19.20;85.60
46900;DHT22;32647;49.382;7.078;2023-08-30T15:32:12;18.90;95.60
46900;DHT22;32647;49.382;7.078;2023-08-30T15:34:58;18.90;97.20
46900;DHT22;32647;49.382;7.078;2023-08-30T15:37:44;18.60;96.00
46900;DHT22;32647;49.382;7.078;2023-08-30T15:40:30;18.50;99.90
46900;DHT22;32647;49.382;7.078;2023-08-30T15:43:19;18.40;96.90
46900;DHT22;32647;49.382;7.078;2023-08-30T15:46:12;18.30;99.90
46900;DHT22;32647;49.382;7.078;2023-08-30T15:48:58;18.40;97.70
46900;DHT22;32647;49.382;7.078;2023-08-30T15:51:44;18.20;75.20
46900;DHT22;32647;49.382;7.078;2023-08-30T15:54:30;18.10;94.40
46900;DHT22;32647;49.382;7.078;2023-08-30T15:57:16;17.90;99.90
46900;DHT22;32647;49.382;7.078;2023-08-30T16:00:02;18.00;99.90
46900;DHT22;32647;49.382;7.078;2023-08-30T16:02:50;17.90;99.90
46900;DHT22;32647;49.382;7.078;2023-08-30T16:05:39;18.00;99.40
46900;DHT22;32647;49.382;7.078;2023-08-30T16:08:25;18.00;99.90
46900;DHT22;32647;49.382;7.078;2023-08-30T16:11:13;17.90;99.90
46900;DHT22;32647;49.382;7.078;2023-08-30T16:14:02;17.70;99.90
46900;DHT22;32647;49.382;7.078;2023-08-30T16:16:49;17.70;99.90
46900;DHT22;32647;49.382;7.078;2023-08-30T16:19:38;17.10;99.90
46900;DHT22;32647;49.382;7.078;2023-08-30T16:22:24;16.70;99.90
46900;DHT22;32647;49.382;7.078;2023-08-30T16:25:14;16.50;99.90
46900;DHT22;32647;49.382;7.078;2023-08-30T16:28:00;16.00;99.90
46900;DHT22;32647;49.382;7.078;2023-08-30T16:30:49;14.50;99.90
46900;DHT22;32647;49.382;7.078;2023-08-30T16:33:35;14.10;99.90
46900;DHT22;32647;49.382;7.078;2023-08-30T16:36:21;14.00;99.90
46900;DHT22;32647;49.382;7.078;2023-08-30T16:39:09;13.90;99.90
46900;DHT22;32647;49.382;7.078;2023-08-30T16:41:55;14.00;99.90
46900;DHT22;32647;49.382;7.078;2023-08-30T16:44:42;14.10;99.90
46900;DHT22;32647;49.382;7.078;2023-08-30T16:47:30;14.30;99.90
46900;DHT22;32647;49.382;7.078;2023-08-30T16:50:16;14.40;99.90
46900;DHT22;32647;49.382;7.078;2023-08-30T16:53:05;14.50;99.90
46900;DHT22;32647;49.382;7.078;2023-08-30T16:55:54;14.70;99.90
46900;DHT22;32647;49.382;7.078;2023-08-30T16:58:40;14.90;99.90
46900;DHT22;32647;49.382;7.078;2023-08-30T17:01:26;15.30;99.90
46900;DHT22;32647;49.382;7.078;2023-08-30T17:04:12;15.50;99.90
46900;DHT22;32647;49.382;7.078;2023-08-30T17:06:59;15.60;99.90
46900;DHT22;32647;49.382;7.078;2023-08-30T17:09:46;15.60;99.90
46900;DHT22;32647;49.382;7.078;2023-08-30T17:12:32;15.40;99.90
46900;DHT22;32647;49.382;7.078;2023-08-30T17:15:47;15.20;99.90
46900;DHT22;32647;49.382;7.078;2023-08-30T17:18:38;15.00;99.90
46900;DHT22;32647;49.382;7.078;2023-08-30T17:21:32;15.00;99.90
46900;DHT22;32647;49.382;7.078;2023-08-30T17:24:19;15.00;99.90
46900;DHT22;32647;49.382;7.078;2023-08-30T17:27:09;14.90;99.90
46900;DHT22;32647;49.382;7.078;2023-08-30T17:29:55;14.80;99.90
46900;DHT22;32647;49.382;7.078;2023-08-30T17:32:41;14.90;99.90
46900;DHT22;32647;49.382;7.078;2023-08-30T17:35:27;14.90;99.90
46900;DHT22;32647;49.382;7.078;2023-08-30T17:38:15;15.00;99.90
46900;DHT22;32647;49.382;7.078;2023-08-30T17:41:06;15.00;99.90
46900;DHT22;32647;49.382;7.078;2023-08-30T17:43:53;15.00;99.90
46900;DHT22;32647;49.382;7.078;2023-08-30T17:46:38;15.00;99.90
46900;DHT22;32647;49.382;7.078;2023-08-30T17:49:46;15.10;99.90
46900;DHT22;32647;49.382;7.078;2023-08-30T17:52:32;14.90;99.90
46900;DHT22;32647;49.382;7.078;2023-08-30T17:55:18;15.00;99.90